»·PEaware :: LXJ331 KVNY-KSDL

LXJ331 :: KVNY-KSDL

FLIGHT INFORMATION

Flight Status: Arrived
Operator: Unknown
More flights by this operator :: More flights under this callsign
Pilot: Kevin M. (7)
Aircraft: Cessna 700 Citation Longitude
(C700)
More flights by this aircraft type
Origin: KVNY Van Nuys
United States
Destination: KSDL Scottsdale
United States
More flights between these airports :: More routes between these airports
Route: +HARYS3 HEC WOTRO KIDDR DSERT2
File this flight plan on PilotEdge
Remarks: Attempting jet IFR in FS2020. Here we go
Altitude:
(Current/Filed)
41,000ft
Speed:
(Current/Filed)
450kts
Departed: 03-Sep-20 07:19 AM
Arrived: 03-Sep-20 08:22 AM
Distance/Time
Traveled:
329nm/1:03
Distance/Time
To Go:
Arrived

Flight Plot

Page will automatically refresh every two minutes.

Flight plan parsing failed; only flown route is shown


Map Options




Map Legend


Flown Route
Filed Route
Departure Airport
Arrival Airport
Navaid (VOR, NDB)
Fix

Horizontal Profiles

Position Reports

Time Latitude Longitude Heading Altitude Ground
Speed
03-Sep-20 07:00 34.216814 -118.495111 193 800ft 0kts
03-Sep-20 07:01 34.216814 -118.495111 193 800ft 0kts
03-Sep-20 07:02 34.216814 -118.495111 193 800ft 0kts
03-Sep-20 07:03 34.216814 -118.495111 193 800ft 0kts
03-Sep-20 07:04 34.216814 -118.495111 193 800ft 0kts
03-Sep-20 07:05 34.216814 -118.495111 193 800ft 0kts
03-Sep-20 07:06 34.216814 -118.495111 193 800ft 0kts
03-Sep-20 07:07 34.216814 -118.495111 193 800ft 0kts
03-Sep-20 07:08 34.216814 -118.495111 193 800ft 0kts
03-Sep-20 07:09 34.216814 -118.495111 193 800ft 0kts
03-Sep-20 07:10 34.216814 -118.495111 193 800ft 0kts
03-Sep-20 07:11 34.216814 -118.495111 193 800ft 0kts
03-Sep-20 07:12 34.216814 -118.495111 193 800ft 0kts
03-Sep-20 07:13 34.216814 -118.495111 193 800ft 0kts
03-Sep-20 07:14 34.216814 -118.495111 193 800ft 0kts
03-Sep-20 07:15 34.216814 -118.495111 193 800ft 0kts
03-Sep-20 07:16 34.216407 -118.493729 98 796ft 11kts
03-Sep-20 07:17 34.218112 -118.492351 353 801ft 10kts
03-Sep-20 07:18 34.212500 -118.490651 175 788ft 127kts
03-Sep-20 07:19 34.155979 -118.471921 129 2692ft 222kts
03-Sep-20 07:20 34.160211 -118.411172 7 4733ft 251kts
03-Sep-20 07:21 34.235443 -118.432449 331 7785ft 294kts
03-Sep-20 07:22 34.311788 -118.447944 356 9181ft 275kts
03-Sep-20 07:23 34.394231 -118.405520 42 12218ft 363kts
03-Sep-20 07:24 34.469741 -118.326890 38 15379ft 380kts
03-Sep-20 07:25 34.553079 -118.242933 38 18684ft 400kts
03-Sep-20 07:26 34.638979 -118.155508 44 22446ft 415kts
03-Sep-20 07:27 34.686945 -118.028045 82 26447ft 439kts
03-Sep-20 07:28 34.696610 -117.876859 84 30441ft 444kts
03-Sep-20 07:29 34.705907 -117.727248 88 33239ft 456kts
03-Sep-20 07:31 34.712124 -117.570658 88 35242ft 467kts
03-Sep-20 07:32 34.722177 -117.424066 84 37747ft 437kts
03-Sep-20 07:33 34.734036 -117.274644 83 40246ft 455kts
03-Sep-20 07:34 34.746523 -117.116813 83 40898ft 474kts
03-Sep-20 07:35 34.758977 -116.958058 84 40913ft 473kts
03-Sep-20 07:36 34.771311 -116.799761 84 40908ft 471kts
03-Sep-20 07:37 34.783488 -116.641526 84 40902ft 470kts
03-Sep-20 07:38 34.794635 -116.484215 87 40898ft 469kts
03-Sep-20 07:39 34.813964 -116.336196 83 40896ft 436kts
03-Sep-20 07:40 34.832391 -116.195079 82 40890ft 420kts
03-Sep-20 07:41 34.850301 -116.055360 81 40888ft 419kts
03-Sep-20 07:42 34.868047 -115.915447 81 40882ft 419kts
03-Sep-20 07:43 34.885663 -115.775424 81 40765ft 422kts
03-Sep-20 07:44 34.903272 -115.634322 81 38441ft 423kts
03-Sep-20 07:44 34.918394 -115.512534 81 36529ft 433kts
03-Sep-20 07:46 34.938714 -115.347360 81 34876ft 415kts
03-Sep-20 07:47 34.956630 -115.199929 81 34981ft 447kts
03-Sep-20 07:47 34.971543 -115.076140 81 34982ft 446kts
03-Sep-20 07:49 34.992312 -114.901842 82 34518ft 444kts
03-Sep-20 07:50 35.009739 -114.753848 82 34021ft 440kts
03-Sep-20 07:50 35.024187 -114.630041 82 33608ft 453kts
03-Sep-20 07:51 35.041568 -114.479453 82 33108ft 447kts
03-Sep-20 07:53 35.061462 -114.305071 82 32540ft 444kts
03-Sep-20 07:53 35.075725 -114.178640 82 32125ft 456kts
03-Sep-20 07:54 35.092838 -114.025239 82 31631ft 455kts
03-Sep-20 07:55 35.109439 -113.874784 82 31144ft 453kts
03-Sep-20 07:56 35.125980 -113.723006 82 30640ft 451kts
03-Sep-20 07:57 35.142364 -113.570930 82 30146ft 463kts
03-Sep-20 07:58 35.158771 -113.416816 82 29655ft 459kts
03-Sep-20 07:59 35.158253 -113.261402 105 29170ft 468kts
03-Sep-20 08:00 35.113857 -113.113514 104 28677ft 466kts
03-Sep-20 08:01 35.074926 -112.963546 106 28178ft 462kts
03-Sep-20 08:02 35.036129 -112.814993 107 27676ft 459kts
03-Sep-20 08:03 34.997469 -112.667737 108 27172ft 456kts
03-Sep-20 08:04 34.958739 -112.521238 108 26669ft 453kts
03-Sep-20 08:05 34.899322 -112.388624 131 26177ft 449kts
03-Sep-20 08:06 34.824751 -112.271730 127 25694ft 457kts
03-Sep-20 08:07 34.748113 -112.149390 127 25187ft 457kts
03-Sep-20 08:08 34.671434 -112.027518 126 24675ft 453kts
03-Sep-20 08:09 34.595370 -111.906757 127 24171ft 450kts
03-Sep-20 08:10 34.519813 -111.787009 127 23672ft 446kts
03-Sep-20 08:11 34.438251 -111.677483 156 23195ft 441kts
03-Sep-20 08:12 34.319969 -111.690661 201 22726ft 436kts
03-Sep-20 08:13 34.207165 -111.740014 189 22220ft 433kts
03-Sep-20 08:14 34.093972 -111.773056 193 19735ft 397kts
03-Sep-20 08:15 33.992609 -111.803094 194 16198ft 340kts
03-Sep-20 08:16 33.907983 -111.828243 194 12746ft 317kts
03-Sep-20 08:17 33.825669 -111.846597 180 9233ft 275kts
03-Sep-20 08:18 33.755161 -111.841720 175 7262ft 235kts
03-Sep-20 08:19 33.691687 -111.841133 198 5977ft 243kts
03-Sep-20 08:20 33.645583 -111.884208 223 2196ft 179kts
03-Sep-20 08:21 33.620899 -111.912825 223 1468ft 25kts

Navigation Log

Ident Type
Flight plan parsing failed, navigation log unavailable